Sea Cloud II — 9HUE6 — position and weather

sailwx.info

Track history (hours):
 
Tides and Currents Weather Stations Pressure Air Temp Water Temp Dewpoint Dewpoint Depression Visibility Wind Speed Wind Dir Waves Ship Positions

Sea Cloud II

Ship's website: http://www.seacloud.com/en/the-ships/sea-cloud-ii.html

Last reported at 2017-Apr-24 17:45 UTC. Time now 2017-Apr-25 12:14 UTC.
Position N 36°47' W 008°12'.

Length 117 m; draft 6 m.

Type: Passenger vessel. MMSI: 248953000.

Date/timePositionNaut miles runAvg speedWind from/ knotsBaromVisibWave heightAir tempDewpointWater temp
2017-Apr-24 17:45N 36°47' W 008°12'311.4
2017-Apr-24 17:28N 36°48' W 008°16'611.3
2017-Apr-24 16:58N 36°48' W 008°23'511.5
2017-Apr-24 16:30N 36°50' W 008°29'611.4
2017-Apr-24 16:00N 36°50' W 008°36'611.3
2017-Apr-24 15:30N 36°52' W 008°43'610.5
2017-Apr-24 14:56N 36°54' W 008°50'1 3.0
2017-Apr-24 14:26N 36°55' W 008°52'1 0.6
2017-Apr-24 13:30N 36°54' W 008°51'0 0.8
2017-Apr-24 13:00N 36°54' W 008°51'1 1.9
2017-Apr-24 12:30N 36°55' W 008°51'1 2.7
2017-Apr-24 12:00N 36°56' W 008°52'1 2.7
2017-Apr-24 11:30N 36°56' W 008°54'1 2.8
2017-Apr-24 11:01N 36°57' W 008°55'2 2.8
2017-Apr-24 10:22N 36°57' W 008°58'1 3.5
2017-Apr-24 10:00N 36°57' W 008°59'2 3.1
2017-Apr-24 09:27N 36°58' W 009°01'7 2.4
2017-Apr-24 06:30N 37°03' W 009°07'7 4.3
2017-Apr-24 04:50N 37°10' W 009°09'3 6.8
2017-Apr-24 04:27N 37°13' W 009°09'3 6.8
2017-Apr-24 04:00N 37°16' W 009°10'3 7.0
2017-Apr-24 03:30N 37°19' W 009°10'3 6.2
2017-Apr-24 03:00N 37°22' W 009°11'3 6.4
2017-Apr-24 02:30N 37°25' W 009°12'3 6.6
2017-Apr-24 02:00N 37°28' W 009°12'4 6.8
2017-Apr-24 01:27N 37°32' W 009°13'3 6.8
2017-Apr-24 00:58N 37°35' W 009°13'3 7.0
2017-Apr-24 00:28N 37°39' W 009°14'3 6.9
2017-Apr-24 00:00N 37°42' W 009°14'4 7.2
2017-Apr-23 23:30N 37°46' W 009°15'3 7.0
2017-Apr-23 23:00N 37°49' W 009°16'4 7.2
2017-Apr-23 22:30N 37°53' W 009°16'3 6.3
2017-Apr-23 22:01N 37°56' W 009°17'612.2
2017-Apr-23 21:31N 38°02' W 009°18'612.4
2017-Apr-23 21:00N 38°08' W 009°19'611.9
2017-Apr-23 20:30N 38°14' W 009°20'611.9
2017-Apr-23 20:01N 38°20' W 009°21'611.8
2017-Apr-23 19:31N 38°26' W 009°22'611.3
2017-Apr-23 19:01N 38°31' W 009°22'612.0
2017-Apr-23 18:31N 38°37' W 009°22'612.2
2017-Apr-23 18:01N 38°41' W 009°16'4 8.8
2017-Apr-23 17:30N 38°41' W 009°10'3 5.5
2017-Apr-23 17:00N 38°43' W 009°07'0 0.0
2017-Apr-23 16:30N 38°43' W 009°07'0 0.0
2017-Apr-23 16:00N 38°43' W 009°07'0 0.0
2017-Apr-23 15:24N 38°43' W 009°07'0 0.0
2017-Apr-23 13:45N 38°43' W 009°07'0 0.0
2017-Apr-23 13:27N 38°43' W 009°07'0 0.0
2017-Apr-23 07:03N 38°43' W 009°07'0 0.1
2017-Apr-23 07:00N 38°43' W 009°07'0 0.0
2017-Apr-23 06:18N 38°43' W 009°07'0 0.0
2017-Apr-23 06:00N 38°43' W 009°07'0 0.0
2017-Apr-23 05:30N 38°43' W 009°07'0 0.0
2017-Apr-23 05:00N 38°43' W 009°07'0 0.0
2017-Apr-23 04:30N 38°43' W 009°07'0 0.0
2017-Apr-23 04:00N 38°43' W 009°07'0 0.0
2017-Apr-23 03:24N 38°43' W 009°07'0 0.0
2017-Apr-22 21:06N 38°43' W 009°07'0 0.0
2017-Apr-22 21:00N 38°43' W 009°07'0 0.0
2017-Apr-22 18:48N 38°43' W 009°07'0 0.0
2017-Apr-22 17:42N 38°43' W 009°07'0 0.0
2017-Apr-22 17:30N 38°43' W 009°07'0 0.0
2017-Apr-22 07:16N 38°43' W 009°07'0 1.8
2017-Apr-22 07:00N 38°42' W 009°08'4 8.5
2017-Apr-22 06:30N 38°41' W 009°13'3 5.5
2017-Apr-22 06:00N 38°41' W 009°16'4 7.8
2017-Apr-22 05:30N 38°39' W 009°20'5 9.3
2017-Apr-22 05:00N 38°36' W 009°25'510.2
2017-Apr-22 04:30N 38°34' W 009°31'510.4
2017-Apr-22 04:00N 38°32' W 009°37'510.4
2017-Apr-22 03:30N 38°29' W 009°43'510.5
2017-Apr-22 03:00N 38°27' W 009°49'510.5
2017-Apr-22 02:30N 38°24' W 009°54'510.6
2017-Apr-22 02:00N 38°21' W 010°00'510.5
2017-Apr-22 01:30N 38°18' W 010°05'  
Track history (hours):
 
Tides and Currents Weather Stations Pressure Air Temp Water Temp Dewpoint Dewpoint Depression Visibility Wind Speed Wind Dir Waves Ship Positions

Sea Cloud II

Ship's website: http://www.seacloud.com/en/the-ships/sea-cloud-ii.html

Last reported at 2017-Apr-24 17:45 UTC. Time now 2017-Apr-25 12:14 UTC.
Position N 36°47' W 008°12'.

Length 117 m; draft 6 m.

Type: Passenger vessel. MMSI: 248953000.

Date/timePositionNaut miles runAvg speedWind from/ knotsBaromVisibWave heightAir tempDewpointWater temp
2017-Apr-24 17:45N 36°47' W 008°12'311.4
2017-Apr-24 17:28N 36°48' W 008°16'611.3
2017-Apr-24 16:58N 36°48' W 008°23'511.5
2017-Apr-24 16:30N 36°50' W 008°29'611.4
2017-Apr-24 16:00N 36°50' W 008°36'611.3
2017-Apr-24 15:30N 36°52' W 008°43'610.5
2017-Apr-24 14:56N 36°54' W 008°50'1 3.0
2017-Apr-24 14:26N 36°55' W 008°52'1 0.6
2017-Apr-24 13:30N 36°54' W 008°51'0 0.8
2017-Apr-24 13:00N 36°54' W 008°51'1 1.9
2017-Apr-24 12:30N 36°55' W 008°51'1 2.7
2017-Apr-24 12:00N 36°56' W 008°52'1 2.7
2017-Apr-24 11:30N 36°56' W 008°54'1 2.8
2017-Apr-24 11:01N 36°57' W 008°55'2 2.8
2017-Apr-24 10:22N 36°57' W 008°58'1 3.5
2017-Apr-24 10:00N 36°57' W 008°59'2 3.1
2017-Apr-24 09:27N 36°58' W 009°01'7 2.4
2017-Apr-24 06:30N 37°03' W 009°07'7 4.3
2017-Apr-24 04:50N 37°10' W 009°09'3 6.8
2017-Apr-24 04:27N 37°13' W 009°09'3 6.8
2017-Apr-24 04:00N 37°16' W 009°10'3 7.0
2017-Apr-24 03:30N 37°19' W 009°10'3 6.2
2017-Apr-24 03:00N 37°22' W 009°11'3 6.4
2017-Apr-24 02:30N 37°25' W 009°12'3 6.6
2017-Apr-24 02:00N 37°28' W 009°12'4 6.8
2017-Apr-24 01:27N 37°32' W 009°13'3 6.8
2017-Apr-24 00:58N 37°35' W 009°13'3 7.0
2017-Apr-24 00:28N 37°39' W 009°14'3 6.9
2017-Apr-24 00:00N 37°42' W 009°14'4 7.2
2017-Apr-23 23:30N 37°46' W 009°15'3 7.0
2017-Apr-23 23:00N 37°49' W 009°16'4 7.2
2017-Apr-23 22:30N 37°53' W 009°16'3 6.3
2017-Apr-23 22:01N 37°56' W 009°17'612.2
2017-Apr-23 21:31N 38°02' W 009°18'612.4
2017-Apr-23 21:00N 38°08' W 009°19'611.9
2017-Apr-23 20:30N 38°14' W 009°20'611.9
2017-Apr-23 20:01N 38°20' W 009°21'611.8
2017-Apr-23 19:31N 38°26' W 009°22'611.3
2017-Apr-23 19:01N 38°31' W 009°22'612.0
2017-Apr-23 18:31N 38°37' W 009°22'612.2
2017-Apr-23 18:01N 38°41' W 009°16'4 8.8
2017-Apr-23 17:30N 38°41' W 009°10'3 5.5
2017-Apr-23 17:00N 38°43' W 009°07'0 0.0
2017-Apr-23 16:30N 38°43' W 009°07'0 0.0
2017-Apr-23 16:00N 38°43' W 009°07'0 0.0
2017-Apr-23 15:24N 38°43' W 009°07'0 0.0
2017-Apr-23 13:45N 38°43' W 009°07'0 0.0
2017-Apr-23 13:27N 38°43' W 009°07'0 0.0
2017-Apr-23 07:03N 38°43' W 009°07'0 0.1
2017-Apr-23 07:00N 38°43' W 009°07'0 0.0
2017-Apr-23 06:18N 38°43' W 009°07'0 0.0
2017-Apr-23 06:00N 38°43' W 009°07'0 0.0
2017-Apr-23 05:30N 38°43' W 009°07'0 0.0
2017-Apr-23 05:00N 38°43' W 009°07'0 0.0
2017-Apr-23 04:30N 38°43' W 009°07'0 0.0
2017-Apr-23 04:00N 38°43' W 009°07'0 0.0
2017-Apr-23 03:24N 38°43' W 009°07'0 0.0
2017-Apr-22 21:06N 38°43' W 009°07'0 0.0
2017-Apr-22 21:00N 38°43' W 009°07'0 0.0
2017-Apr-22 18:48N 38°43' W 009°07'0 0.0
2017-Apr-22 17:42N 38°43' W 009°07'0 0.0
2017-Apr-22 17:30N 38°43' W 009°07'0 0.0
2017-Apr-22 07:16N 38°43' W 009°07'0 1.8
2017-Apr-22 07:00N 38°42' W 009°08'4 8.5
2017-Apr-22 06:30N 38°41' W 009°13'3 5.5
2017-Apr-22 06:00N 38°41' W 009°16'4 7.8
2017-Apr-22 05:30N 38°39' W 009°20'5 9.3
2017-Apr-22 05:00N 38°36' W 009°25'510.2
2017-Apr-22 04:30N 38°34' W 009°31'510.4
2017-Apr-22 04:00N 38°32' W 009°37'510.4
2017-Apr-22 03:30N 38°29' W 009°43'510.5
2017-Apr-22 03:00N 38°27' W 009°49'510.5
2017-Apr-22 02:30N 38°24' W 009°54'510.6
2017-Apr-22 02:00N 38°21' W 010°00'510.5
2017-Apr-22 01:30N 38°18' W 010°05'  

Dump ship's entire track history